Station Historical Data
Daily Summary for August 20, 2017 Units:  English    Metric   Both
« Previous Day
Next Day »
Daily Weekly Monthly Yearly Custom
  High: Low: Average:
Temperature: 79.6 °F 58.6 °F 69.9 °F
Dew Point: 68.3 °F 54.8 °F 61 °F
Humidity: 90% 57% 74%
Wind Speed: 13.0mph 0.0mph 2.9mph
Wind Gust: 17.0mph - -
Wind- - SW
Pressure: 30.10 in 29.95 in -
Precipitation: 0.00 in    
Historical Graphs
 
 
Tabular Data for August 20, 2017
Time Temperature Dew Point Pressure Wind Wind Speed Wind Gust Humidity Rainfall Rate (Hourly)
00:04 64.7 °F 56.6 °F 29.95 in West 3.0 mph 6.0 mph 75% 0.00 in
00:09 64.5 °F 56.8 °F 29.95 in West 3.0 mph 6.0 mph 76% 0.00 in
00:14 64.5 °F 56.4 °F 29.96 in West 1.0 mph 6.0 mph 75% 0.00 in
00:19 64.3 °F 56.2 °F 29.96 in West 3.0 mph 4.0 mph 75% 0.00 in
00:24 64.2 °F 56.5 °F 29.96 in West 2.0 mph 5.0 mph 76% 0.00 in
00:29 64.1 °F 56.4 °F 29.96 in West 2.0 mph 5.0 mph 76% 0.00 in
00:34 64.0 °F 56.3 °F 29.96 in Calm   3.0 mph 76% 0.00 in
00:39 63.8 °F 56.1 °F 29.96 in Calm   3.0 mph 76% 0.00 in
00:44 63.6 °F 56.3 °F 29.96 in Calm     77% 0.00 in
00:49 63.5 °F 56.2 °F 29.96 in Calm   4.0 mph 77% 0.00 in
00:54 63.4 °F 56.1 °F 29.96 in West 1.0 mph 4.0 mph 77% 0.00 in
00:59 63.3 °F 56.0 °F 29.96 in Calm   4.0 mph 77% 0.00 in
01:05 63.0 °F 56.0 °F 29.97 in Calm     78% 0.00 in
01:10 62.9 °F 55.9 °F 29.97 in Calm     78% 0.00 in
01:15 62.9 °F 55.9 °F 29.97 in Calm     78% 0.00 in
01:20 62.7 °F 55.7 °F 29.97 in Calm     78% 0.00 in
01:25 62.3 °F 55.7 °F 29.97 in Calm     79% 0.00 in
01:30 62.0 °F 55.8 °F 29.97 in West 2.0 mph 2.0 mph 80% 0.00 in
01:35 62.2 °F 55.6 °F 29.98 in Calm   2.0 mph 79% 0.00 in
01:40 62.2 °F 55.6 °F 29.97 in Calm     79% 0.00 in
01:45 62.3 °F 55.7 °F 29.97 in Calm   2.0 mph 79% 0.00 in
01:50 62.2 °F 55.6 °F 29.98 in Calm   2.0 mph 79% 0.00 in
01:55 62.1 °F 55.5 °F 29.98 in Calm     79% 0.00 in
02:00 62.1 °F 55.5 °F 29.98 in Calm     79% 0.00 in
02:05 61.9 °F 55.7 °F 29.98 in Calm   3.0 mph 80% 0.00 in
02:10 61.8 °F 55.2 °F 29.98 in Calm   1.0 mph 79% 0.00 in
02:15 61.6 °F 55.4 °F 29.98 in Calm     80% 0.00 in
02:20 61.4 °F 55.2 °F 29.98 in Calm     80% 0.00 in
02:25 61.1 °F 55.2 °F 29.98 in Calm     81% 0.00 in
02:30 60.9 °F 55.4 °F 29.98 in Calm     82% 0.00 in
02:35 60.9 °F 55.4 °F 29.98 in Calm   1.0 mph 82% 0.00 in
02:40 60.9 °F 55.4 °F 29.98 in Calm     82% 0.00 in
02:45 60.9 °F 55.4 °F 29.98 in Calm     82% 0.00 in
02:50 60.8 °F 55.3 °F 29.98 in Calm     82% 0.00 in
02:55 60.7 °F 55.2 °F 29.98 in Calm   2.0 mph 82% 0.00 in
03:00 60.8 °F 55.3 °F 29.98 in Calm   2.0 mph 82% 0.00 in
03:05 60.8 °F 55.3 °F 29.99 in Calm   2.0 mph 82% 0.00 in
03:10 61.0 °F 55.5 °F 29.99 in Calm     82% 0.00 in
03:15 61.0 °F 55.5 °F 29.99 in Calm     82% 0.00 in
03:20 60.9 °F 55.4 °F 29.99 in Calm   1.0 mph 82% 0.00 in
03:25 60.8 °F 55.3 °F 29.99 in Calm     82% 0.00 in
03:30 60.8 °F 55.3 °F 29.99 in Calm     82% 0.00 in
03:35 60.7 °F 55.2 °F 29.99 in Calm     82% 0.00 in
03:40 60.5 °F 55.3 °F 29.99 in Calm     83% 0.00 in
03:45 60.2 °F 55.0 °F 29.99 in Calm     83% 0.00 in
03:50 59.9 °F 55.1 °F 29.99 in Calm     84% 0.00 in
03:55 59.7 °F 54.9 °F 29.99 in Calm     84% 0.00 in
04:00 59.6 °F 55.1 °F 29.99 in Calm     85% 0.00 in
04:05 59.4 °F 54.9 °F 29.99 in Calm     85% 0.00 in
04:10 59.3 °F 55.1 °F 30.00 in Calm     86% 0.00 in
04:15 59.2 °F 55.0 °F 30.00 in Calm     86% 0.00 in
04:20 59.1 °F 54.9 °F 30.00 in Calm     86% 0.00 in
04:25 59.0 °F 54.8 °F 29.99 in Calm     86% 0.00 in
04:30 59.0 °F 54.8 °F 30.00 in Calm     86% 0.00 in
04:35 59.0 °F 55.1 °F 30.00 in Calm     87% 0.00 in
04:40 58.9 °F 55.0 °F 30.00 in Calm     87% 0.00 in
04:45 58.9 °F 55.0 °F 30.00 in Calm     87% 0.00 in
04:50 58.9 °F 55.0 °F 30.00 in Calm     87% 0.00 in
04:55 59.0 °F 55.1 °F 30.00 in Calm     87% 0.00 in
05:00 59.0 °F 55.1 °F 30.00 in Calm     87% 0.00 in
05:05 58.9 °F 55.0 °F 30.00 in Calm     87% 0.00 in
05:10 58.8 °F 54.9 °F 30.00 in Calm     87% 0.00 in
05:15 58.8 °F 54.9 °F 30.00 in Calm     87% 0.00 in
05:20 58.9 °F 55.0 °F 30.01 in Calm     87% 0.00 in
05:25 58.7 °F 54.8 °F 30.01 in Calm     87% 0.00 in
05:30 58.6 °F 55.1 °F 30.01 in Calm     88% 0.00 in
05:35 58.6 °F 55.1 °F 30.01 in Calm     88% 0.00 in
05:40 58.7 °F 55.2 °F 30.02 in Calm     88% 0.00 in
05:45 58.7 °F 55.2 °F 30.01 in Calm     88% 0.00 in
05:50 58.7 °F 55.2 °F 30.01 in Calm     88% 0.00 in
05:55 58.6 °F 55.1 °F 30.01 in Calm     88% 0.00 in
06:00 58.6 °F 55.1 °F 30.02 in Calm     88% 0.00 in
06:05 58.6 °F 55.1 °F 30.02 in Calm     88% 0.00 in
06:10 58.6 °F 55.1 °F 30.02 in Calm     88% 0.00 in
06:15 58.9 °F 55.7 °F 30.02 in Calm     89% 0.00 in
06:20 59.1 °F 55.9 °F 30.02 in Calm     89% 0.00 in
06:25 59.4 °F 56.2 °F 30.03 in Calm     89% 0.00 in
06:30 59.7 °F 56.5 °F 30.03 in Calm     89% 0.00 in
06:35 60.0 °F 56.7 °F 30.04 in Calm     89% 0.00 in
06:40 60.6 °F 57.7 °F 30.04 in Calm     90% 0.00 in
06:44 61.2 °F 58.2 °F 30.04 in Calm   3.0 mph 90% 0.00 in
06:50 61.6 °F 58.3 °F 30.04 in Calm   4.0 mph 89% 0.00 in
06:55 61.9 °F 58.6 °F 30.04 in Calm   4.0 mph 89% 0.00 in
07:00 62.1 °F 58.5 °F 30.04 in Calm   2.0 mph 88% 0.00 in
07:05 62.3 °F 58.7 °F 30.04 in Calm   2.0 mph 88% 0.00 in
07:10 62.4 °F 58.5 °F 30.04 in Calm   2.0 mph 87% 0.00 in
07:15 62.4 °F 58.5 °F 30.04 in Calm     87% 0.00 in
07:19 62.6 °F 58.7 °F 30.04 in Calm     87% 0.00 in
07:24 62.8 °F 58.9 °F 30.04 in Calm     87% 0.00 in
07:29 63.4 °F 59.5 °F 30.04 in Calm   3.0 mph 87% 0.00 in
07:35 63.9 °F 59.6 °F 30.04 in South 1.0 mph 3.0 mph 86% 0.00 in
07:40 64.5 °F 59.9 °F 30.04 in South 1.0 mph 4.0 mph 85% 0.00 in
07:45 65.0 °F 60.0 °F 30.04 in South 1.0 mph 4.0 mph 84% 0.00 in
07:49 65.3 °F 60.0 °F 30.04 in South 1.0 mph 5.0 mph 83% 0.00 in
07:55 65.3 °F 59.7 °F 30.04 in South 2.0 mph 5.0 mph 82% 0.00 in
08:00 65.3 °F 59.3 °F 30.05 in SSW 1.0 mph 4.0 mph 81% 0.00 in
08:05 65.4 °F 59.4 °F 30.05 in Calm   3.0 mph 81% 0.00 in
08:10 65.9 °F 59.9 °F 30.05 in South 2.0 mph 3.0 mph 81% 0.00 in
08:15 66.2 °F 59.8 °F 30.05 in South 4.0 mph 6.0 mph 80% 0.00 in
08:20 66.7 °F 60.3 °F 30.05 in South 3.0 mph 5.0 mph 80% 0.00 in
08:25 67.0 °F 60.6 °F 30.05 in South 2.0 mph 6.0 mph 80% 0.00 in
08:30 67.4 °F 60.3 °F 30.05 in SSW 2.0 mph 6.0 mph 78% 0.00 in
08:35 68.0 °F 60.5 °F 30.05 in SSW 3.0 mph 5.0 mph 77% 0.00 in
08:40 68.4 °F 60.5 °F 30.05 in SW 6.0 mph 6.0 mph 76% 0.00 in
08:45 69.0 °F 61.1 °F 30.05 in SW 4.0 mph 6.0 mph 76% 0.00 in
08:50 69.5 °F 61.2 °F 30.05 in SW 2.0 mph 6.0 mph 75% 0.00 in
08:54 70.1 °F 61.8 °F 30.05 in SSW 3.0 mph 6.0 mph 75% 0.00 in
09:00 70.6 °F 62.3 °F 30.05 in WSW 3.0 mph 10.0 mph 75% 0.00 in
09:04 70.9 °F 62.6 °F 30.05 in SW 4.0 mph 5.0 mph 75% 0.00 in
09:10 71.6 °F 63.3 °F 30.05 in SW 3.0 mph 8.0 mph 75% 0.00 in
09:15 72.2 °F 63.8 °F 30.05 in WSW 3.0 mph 7.0 mph 75% 0.00 in
09:20 72.5 °F 64.1 °F 30.05 in West 3.0 mph 8.0 mph 75% 0.00 in
09:24 72.2 °F 63.8 °F 30.05 in SW 5.0 mph 9.0 mph 75% 0.00 in
09:29 72.3 °F 63.9 °F 30.05 in SW 4.0 mph 9.0 mph 75% 0.00 in
09:35 73.0 °F 64.2 °F 30.05 in SW 4.0 mph 8.0 mph 74% 0.00 in
09:40 73.7 °F 64.9 °F 30.05 in SW 4.0 mph 8.0 mph 74% 0.00 in
09:45 73.4 °F 64.2 °F 30.05 in SW 4.0 mph 9.0 mph 73% 0.00 in
09:50 73.6 °F 64.4 °F 30.05 in SW 5.0 mph 9.0 mph 73% 0.00 in
09:54 73.7 °F 64.9 °F 30.06 in WSW 5.0 mph 10.0 mph 74% 0.00 in
09:59 73.9 °F 64.7 °F 30.06 in West 9.0 mph 11.0 mph 73% 0.00 in
10:04 74.2 °F 64.6 °F 30.06 in South 6.0 mph 10.0 mph 72% 0.00 in
10:10 74.0 °F 64.4 °F 30.06 in SW 5.0 mph 12.0 mph 72% 0.00 in
10:15 74.3 °F 65.1 °F 30.06 in WSW 4.0 mph 9.0 mph 73% 0.00 in
10:20 74.5 °F 65.3 °F 30.06 in WSW 9.0 mph 11.0 mph 73% 0.00 in
10:25 74.7 °F 65.5 °F 30.06 in West 3.0 mph 12.0 mph 73% 0.00 in
10:29 74.9 °F 65.7 °F 30.07 in WSW 7.0 mph 17.0 mph 73% 0.00 in
10:34 75.1 °F 66.2 °F 30.07 in SW 7.0 mph 17.0 mph 74% 0.00 in
10:40 75.6 °F 66.3 °F 30.08 in WSW 6.0 mph 13.0 mph 73% 0.00 in
10:45 75.7 °F 66.0 °F 30.08 in WSW 6.0 mph 14.0 mph 72% 0.00 in
10:50 75.6 °F 65.9 °F 30.08 in WSW 4.0 mph 14.0 mph 72% 0.00 in
10:54 75.8 °F 66.5 °F 30.08 in WSW 6.0 mph 14.0 mph 73% 0.00 in
11:00 76.1 °F 66.8 °F 30.08 in West 3.0 mph 12.0 mph 73% 0.00 in
11:04 76.2 °F 66.9 °F 30.08 in SW 3.0 mph 12.0 mph 73% 0.00 in
11:09 75.8 °F 66.9 °F 30.09 in WSW 8.0 mph 13.0 mph 74% 0.00 in
11:14 75.7 °F 67.6 °F 30.09 in South 4.0 mph 17.0 mph 76% 0.00 in
11:19 75.7 °F 67.6 °F 30.09 in WSW 7.0 mph 15.0 mph 76% 0.00 in
11:24 76.4 °F 67.5 °F 30.09 in SW 8.0 mph 14.0 mph 74% 0.00 in
11:29 76.4 °F 67.9 °F 30.09 in WSW 5.0 mph 13.0 mph 75% 0.00 in
11:34 76.5 °F 68.0 °F 30.09 in SW 7.0 mph 16.0 mph 75% 0.00 in
11:39 76.6 °F 68.1 °F 30.09 in SW 5.0 mph 14.0 mph 75% 0.00 in
11:45 77.1 °F 67.8 °F 30.09 in WSW 8.0 mph 15.0 mph 73% 0.00 in
11:50 76.8 °F 67.5 °F 30.09 in SSW 9.0 mph 13.0 mph 73% 0.00 in
11:55 76.6 °F 67.7 °F 30.09 in West 2.0 mph 13.0 mph 74% 0.00 in
11:59 76.7 °F 68.2 °F 30.08 in SW 6.0 mph 13.0 mph 75% 0.00 in
12:04 77.2 °F 68.3 °F 30.08 in SW 6.0 mph 14.0 mph 74% 0.00 in
12:09 77.4 °F 67.7 °F 30.08 in SW 7.0 mph 16.0 mph 72% 0.00 in
12:15 77.2 °F 68.3 °F 30.08 in SW 8.0 mph 16.0 mph 74% 0.00 in
12:20 77.8 °F 68.0 °F 30.08 in SW 7.0 mph 15.0 mph 72% 0.00 in
12:25 77.4 °F 66.8 °F 30.08 in SW 7.0 mph 13.0 mph 70% 0.00 in
12:29 77.6 °F 67.4 °F 30.08 in WSW 5.0 mph 12.0 mph 71% 0.00 in
12:34 77.7 °F 67.1 °F 30.08 in SSE 3.0 mph 10.0 mph 70% 0.00 in
12:40 78.4 °F 68.2 °F 30.07 in WSW 6.0 mph 13.0 mph 71% 0.00 in
12:44 78.0 °F 67.0 °F 30.07 in SW 8.0 mph 13.0 mph 69% 0.00 in
12:49 77.8 °F 68.0 °F 30.08 in WSW 7.0 mph 15.0 mph 72% 0.00 in
12:54 77.6 °F 67.4 °F 30.07 in WSW 6.0 mph 13.0 mph 71% 0.00 in
12:59 77.8 °F 67.2 °F 30.08 in WSW 7.0 mph 13.0 mph 70% 0.00 in
13:04 77.7 °F 66.3 °F 30.08 in WSW 7.0 mph 13.0 mph 68% 0.00 in
13:10 77.7 °F 68.0 °F 30.08 in WSW 7.0 mph 13.0 mph 72% 0.00 in
13:14 77.9 °F 66.9 °F 30.08 in WSW 7.0 mph 13.0 mph 69% 0.00 in
13:20 77.6 °F 66.6 °F 30.08 in WSW 7.0 mph 15.0 mph 69% 0.00 in
13:25 77.8 °F 67.6 °F 30.08 in WSW 8.0 mph 16.0 mph 71% 0.00 in
13:29 77.9 °F 66.9 °F 30.08 in WSW 7.0 mph 16.0 mph 69% 0.00 in
13:34 77.9 °F 67.3 °F 30.08 in West 7.0 mph 13.0 mph 70% 0.00 in
13:39 78.6 °F 68.0 °F 30.08 in WSW 8.0 mph 12.0 mph 70% 0.00 in
13:45 78.1 °F 67.1 °F 30.08 in WSW 9.0 mph 13.0 mph 69% 0.00 in
13:49 78.3 °F 67.7 °F 30.08 in SSW 2.0 mph 12.0 mph 70% 0.00 in
13:54 77.8 °F 67.2 °F 30.09 in WSW 13.0 mph 16.0 mph 70% 0.00 in
13:59 78.2 °F 67.6 °F 30.09 in WSW 6.0 mph 13.0 mph 70% 0.00 in
14:05 78.6 °F 67.2 °F 30.09 in SW 7.0 mph 13.0 mph 68% 0.00 in
14:09 78.2 °F 67.6 °F 30.09 in SW 7.0 mph 15.0 mph 70% 0.00 in
14:15 79.0 °F 67.1 °F 30.09 in WSW 7.0 mph 15.0 mph 67% 0.00 in
14:20 78.9 °F 67.0 °F 30.09 in WSW 6.0 mph 12.0 mph 67% 0.00 in
14:25 78.5 °F 66.2 °F 30.09 in West 8.0 mph 15.0 mph 66% 0.00 in
14:30 78.7 °F 66.4 °F 30.09 in WSW 9.0 mph 13.0 mph 66% 0.00 in
14:34 78.8 °F 66.5 °F 30.09 in WSW 7.0 mph 13.0 mph 66% 0.00 in
14:39 79.6 °F 66.3 °F 30.09 in WSW 6.0 mph 11.0 mph 64% 0.00 in
14:44 79.5 °F 65.8 °F 30.08 in SW 6.0 mph 10.0 mph 63% 0.00 in
14:49 79.3 °F 65.1 °F 30.08 in WSW 5.0 mph 15.0 mph 62% 0.00 in
14:54 78.9 °F 64.8 °F 30.08 in SW 8.0 mph 15.0 mph 62% 0.00 in
14:59 78.9 °F 64.8 °F 30.08 in WSW 7.0 mph 14.0 mph 62% 0.00 in
15:04 79.1 °F 64.5 °F 30.08 in WSW 7.0 mph 14.0 mph 61% 0.00 in
15:09 79.1 °F 64.0 °F 30.08 in WSW 7.0 mph 13.0 mph 60% 0.00 in
15:15 79.2 °F 64.1 °F 30.08 in WSW 6.0 mph 13.0 mph 60% 0.00 in
15:20 78.9 °F 63.4 °F 30.08 in SW 4.0 mph 15.0 mph 59% 0.00 in
15:24 79.3 °F 63.7 °F 30.08 in SW 5.0 mph 14.0 mph 59% 0.00 in
15:30 79.2 °F 64.1 °F 30.07 in WSW 7.0 mph 13.0 mph 60% 0.00 in
15:34 79.2 °F 63.6 °F 30.08 in WSW 7.0 mph 13.0 mph 59% 0.00 in
15:40 78.9 °F 62.9 °F 30.08 in WSW 7.0 mph 17.0 mph 58% 0.00 in
15:44 78.9 °F 62.9 °F 30.08 in WSW 7.0 mph 16.0 mph 58% 0.00 in
15:49 78.9 °F 63.4 °F 30.08 in SSW 4.0 mph 15.0 mph 59% 0.00 in
15:54 79.1 °F 63.5 °F 30.08 in WSW 5.0 mph 13.0 mph 59% 0.00 in
15:59 79.0 °F 63.9 °F 30.08 in WSW 7.0 mph 14.0 mph 60% 0.00 in
16:04 79.1 °F 64.0 °F 30.08 in SW 7.0 mph 14.0 mph 60% 0.00 in
16:10 78.9 °F 63.4 °F 30.08 in WSW 6.0 mph 12.0 mph 59% 0.00 in
16:14 79.1 °F 63.5 °F 30.07 in SW 7.0 mph 13.0 mph 59% 0.00 in
16:19 79.1 °F 63.5 °F 30.07 in WSW 6.0 mph 13.0 mph 59% 0.00 in
16:24 78.9 °F 63.4 °F 30.07 in WSW 6.0 mph 17.0 mph 59% 0.00 in
16:29 79.2 °F 63.1 °F 30.07 in WNW 5.0 mph 14.0 mph 58% 0.00 in
16:34 78.9 °F 62.9 °F 30.07 in WSW 7.0 mph 14.0 mph 58% 0.00 in
16:39 79.2 °F 62.7 °F 30.07 in WSW 7.0 mph 15.0 mph 57% 0.00 in
16:44 79.0 °F 62.5 °F 30.07 in WSW 7.0 mph 15.0 mph 57% 0.00 in
16:50 78.8 °F 62.3 °F 30.07 in SW 7.0 mph 13.0 mph 57% 0.00 in
16:54 79.0 °F 63.0 °F 30.07 in WSW 5.0 mph 12.0 mph 58% 0.00 in
16:59 79.1 °F 63.1 °F 30.07 in SW 1.0 mph 12.0 mph 58% 0.00 in
17:04 79.1 °F 62.6 °F 30.07 in SW 5.0 mph 12.0 mph 57% 0.00 in
17:09 78.6 °F 62.1 °F 30.07 in SW 7.0 mph 14.0 mph 57% 0.00 in
17:14 78.4 °F 62.4 °F 30.06 in West 5.0 mph 12.0 mph 58% 0.00 in
17:19 78.5 °F 62.0 °F 30.06 in SSW 8.0 mph 11.0 mph 57% 0.00 in
17:24 78.6 °F 62.1 °F 30.06 in West 5.0 mph 11.0 mph 57% 0.00 in
17:29 78.3 °F 61.8 °F 30.06 in SW 4.0 mph 14.0 mph 57% 0.00 in
17:34 78.5 °F 63.0 °F 30.06 in SW 6.0 mph 14.0 mph 59% 0.00 in
17:39 78.7 °F 62.7 °F 30.06 in SW 5.0 mph 15.0 mph 58% 0.00 in
17:44 78.1 °F 62.6 °F 30.06 in SW 6.0 mph 15.0 mph 59% 0.00 in
17:49 77.9 °F 62.4 °F 30.06 in WSW 6.0 mph 15.0 mph 59% 0.00 in
17:54 77.9 °F 62.4 °F 30.06 in WSW 6.0 mph 13.0 mph 59% 0.00 in
18:00 78.0 °F 62.0 °F 30.06 in SW 5.0 mph 13.0 mph 58% 0.00 in
18:04 77.7 °F 61.3 °F 30.07 in WSW 6.0 mph 13.0 mph 57% 0.00 in
18:09 77.4 °F 61.5 °F 30.07 in WSW 7.0 mph 13.0 mph 58% 0.00 in
18:14 77.2 °F 61.8 °F 30.07 in WSW 8.0 mph 13.0 mph 59% 0.00 in
18:19 77.2 °F 62.2 °F 30.06 in SSW 3.0 mph 9.0 mph 60% 0.00 in
18:24 77.0 °F 62.0 °F 30.06 in WSW 7.0 mph 12.0 mph 60% 0.00 in
18:29 76.9 °F 62.4 °F 30.06 in SW 7.0 mph 9.0 mph 61% 0.00 in
18:34 76.7 °F 61.8 °F 30.06 in WSW 7.0 mph 12.0 mph 60% 0.00 in
18:39 76.5 °F 62.5 °F 30.06 in SW 5.0 mph 12.0 mph 62% 0.00 in
18:44 76.5 °F 61.6 °F 30.06 in SW 4.0 mph 10.0 mph 60% 0.00 in
18:49 76.3 °F 61.4 °F 30.06 in WSW 3.0 mph 10.0 mph 60% 0.00 in
18:55 76.2 °F 61.8 °F 30.06 in WSW 4.0 mph 8.0 mph 61% 0.00 in
18:59 76.0 °F 61.6 °F 30.07 in WSW 5.0 mph 8.0 mph 61% 0.00 in
19:04 75.9 °F 61.9 °F 30.07 in WSW 4.0 mph 9.0 mph 62% 0.00 in
19:09 75.7 °F 62.2 °F 30.06 in WSW 4.0 mph 9.0 mph 63% 0.00 in
19:14 75.5 °F 62.5 °F 30.06 in WSW 4.0 mph 10.0 mph 64% 0.00 in
19:20 75.3 °F 62.3 °F 30.06 in WSW 4.0 mph 10.0 mph 64% 0.00 in
19:24 75.1 °F 62.5 °F 30.07 in SW 3.0 mph 9.0 mph 65% 0.00 in
19:29 74.8 °F 62.2 °F 30.07 in SW 4.0 mph 9.0 mph 65% 0.00 in
19:34 74.6 °F 62.5 °F 30.07 in WSW 1.0 mph 5.0 mph 66% 0.00 in
19:39 74.3 °F 62.6 °F 30.07 in WSW 2.0 mph 4.0 mph 67% 0.00 in
19:44 73.9 °F 62.7 °F 30.07 in SW 2.0 mph 3.0 mph 68% 0.00 in
19:49 73.5 °F 62.7 °F 30.07 in SSW 2.0 mph 5.0 mph 69% 0.00 in
19:54 73.2 °F 62.8 °F 30.07 in SSW 1.0 mph 4.0 mph 70% 0.00 in
19:59 73.0 °F 63.0 °F 30.07 in SW 2.0 mph 4.0 mph 71% 0.00 in
20:04 72.7 °F 63.1 °F 30.07 in Calm   4.0 mph 72% 0.00 in
20:09 72.6 °F 63.1 °F 30.07 in SW 2.0 mph 5.0 mph 72% 0.00 in
20:14 72.4 °F 63.3 °F 30.07 in SSW 2.0 mph 5.0 mph 73% 0.00 in
20:19 72.2 °F 63.4 °F 30.07 in SSW 2.0 mph 4.0 mph 74% 0.00 in
20:24 72.0 °F 63.3 °F 30.07 in SSW 2.0 mph 4.0 mph 74% 0.00 in
20:29 71.8 °F 63.4 °F 30.07 in SSW 1.0 mph 4.0 mph 75% 0.00 in
20:34 71.7 °F 63.7 °F 30.08 in Calm   6.0 mph 76% 0.00 in
20:39 71.5 °F 63.5 °F 30.08 in SSW 1.0 mph 6.0 mph 76% 0.00 in
20:44 71.4 °F 63.4 °F 30.08 in SSW 1.0 mph 5.0 mph 76% 0.00 in
20:49 71.4 °F 63.4 °F 30.08 in SSW 2.0 mph 5.0 mph 76% 0.00 in
20:54 71.3 °F 63.3 °F 30.08 in SW 1.0 mph 4.0 mph 76% 0.00 in
21:00 71.0 °F 63.1 °F 30.08 in Calm   3.0 mph 76% 0.00 in
21:04 70.7 °F 62.8 °F 30.09 in Calm   3.0 mph 76% 0.00 in
21:09 70.5 °F 62.6 °F 30.09 in SSW 1.0 mph 4.0 mph 76% 0.00 in
21:14 70.3 °F 62.4 °F 30.09 in SSW 1.0 mph 4.0 mph 76% 0.00 in
21:19 70.1 °F 62.2 °F 30.09 in Calm   3.0 mph 76% 0.00 in
21:24 69.9 °F 62.0 °F 30.09 in Calm   1.0 mph 76% 0.00 in
21:29 69.7 °F 61.8 °F 30.09 in Calm     76% 0.00 in
21:34 69.4 °F 61.9 °F 30.10 in Calm     77% 0.00 in
21:35 69.4 °F 61.9 °F 30.10 in Calm     77% 0.00 in
21:40 69.1 °F 61.6 °F 30.09 in Calm     77% 0.00 in
21:44 68.7 °F 61.6 °F 30.10 in Calm     78% 0.00 in
21:49 68.5 °F 61.4 °F 30.10 in Calm     78% 0.00 in
21:54 68.3 °F 61.2 °F 30.10 in Calm     78% 0.00 in
21:59 68.0 °F 60.9 °F 30.10 in Calm     78% 0.00 in
22:04 67.8 °F 60.7 °F 30.10 in Calm     78% 0.00 in
22:09 67.7 °F 60.6 °F 30.10 in Calm     78% 0.00 in
22:14 67.6 °F 60.1 °F 30.10 in Calm     77% 0.00 in
22:19 67.6 °F 59.8 °F 30.10 in Calm     76% 0.00 in
22:24 67.6 °F 59.8 °F 30.10 in Calm     76% 0.00 in
22:29 67.6 °F 59.8 °F 30.10 in Calm     76% 0.00 in
22:34 67.5 °F 59.7 °F 30.10 in Calm     76% 0.00 in
22:39 67.5 °F 59.7 °F 30.10 in Calm     76% 0.00 in
22:44 67.4 °F 59.6 °F 30.10 in Calm     76% 0.00 in
22:49 67.2 °F 59.4 °F 30.10 in Calm     76% 0.00 in
22:54 67.2 °F 59.4 °F 30.10 in Calm     76% 0.00 in
22:59 67.1 °F 58.9 °F 30.10 in Calm     75% 0.00 in
23:04 66.9 °F 59.1 °F 30.10 in Calm     76% 0.00 in
23:09 66.6 °F 59.2 °F 30.10 in Calm     77% 0.00 in
23:14 66.3 °F 58.9 °F 30.10 in Calm     77% 0.00 in
23:19 66.0 °F 58.9 °F 30.10 in Calm     78% 0.00 in
23:24 65.7 °F 58.7 °F 30.10 in Calm     78% 0.00 in
23:29 65.4 °F 58.7 °F 30.10 in Calm     79% 0.00 in
23:34 65.3 °F 58.6 °F 30.10 in Calm     79% 0.00 in
23:39 65.2 °F 58.5 °F 30.10 in Calm     79% 0.00 in
23:44 65.0 °F 58.3 °F 30.10 in Calm     79% 0.00 in
23:49 64.9 °F 58.2 °F 30.10 in Calm     79% 0.00 in
23:54 64.8 °F 58.1 °F 30.10 in Calm     79% 0.00 in
23:59 64.6 °F 58.3 °F 30.10 in Calm     80% 0.00 in
Buffalo, New York, USA
Compliments of Weather Underground - 2.5 mb